sensor_id;sensor_type;location;lat;lon;timestamp;pressure;altitude;pressure_sealevel;temperature;humidity
42169;BME280;27838;43.858;25.974;2022-11-04T00:02:01;101259.19;;;16.41;49.44
42169;BME280;27838;43.858;25.974;2022-11-04T00:04:28;101263.63;;;16.37;49.81
42169;BME280;27838;43.858;25.974;2022-11-04T00:06:55;101248.72;;;16.36;49.80
42169;BME280;27838;43.858;25.974;2022-11-04T00:09:27;101259.19;;;16.42;49.76
42169;BME280;27838;43.858;25.974;2022-11-04T00:11:55;101245.16;;;16.40;50.31
42169;BME280;27838;43.858;25.974;2022-11-04T00:14:40;101251.16;;;16.49;50.18
42169;BME280;27838;43.858;25.974;2022-11-04T00:17:11;101251.09;;;16.53;49.59
42169;BME280;27838;43.858;25.974;2022-11-04T00:19:53;101252.00;;;16.51;49.62
42169;BME280;27838;43.858;25.974;2022-11-04T00:22:39;101248.53;;;16.49;49.96
42169;BME280;27838;43.858;25.974;2022-11-04T00:25:24;101253.00;;;16.43;49.79
42169;BME280;27838;43.858;25.974;2022-11-04T00:28:12;101246.09;;;16.36;50.30
42169;BME280;27838;43.858;25.974;2022-11-04T00:30:57;101244.44;;;16.32;50.80
42169;BME280;27838;43.858;25.974;2022-11-04T00:33:49;101242.53;;;16.39;50.77
42169;BME280;27838;43.858;25.974;2022-11-04T00:36:15;101242.53;;;16.40;50.68
42169;BME280;27838;43.858;25.974;2022-11-04T00:38:42;101233.72;;;16.45;50.69
42169;BME280;27838;43.858;25.974;2022-11-04T00:41:08;101233.75;;;16.41;50.59
42169;BME280;27838;43.858;25.974;2022-11-04T00:43:49;101233.81;;;16.35;51.16
42169;BME280;27838;43.858;25.974;2022-11-04T00:46:15;101231.34;;;16.28;51.93
42169;BME280;27838;43.858;25.974;2022-11-04T00:48:42;101228.69;;;16.29;52.20
42169;BME280;27838;43.858;25.974;2022-11-04T00:51:08;101234.81;;;16.28;52.27
42169;BME280;27838;43.858;25.974;2022-11-04T00:53:35;101229.63;;;16.25;52.50
42169;BME280;27838;43.858;25.974;2022-11-04T00:56:01;101232.19;;;16.28;52.70
42169;BME280;27838;43.858;25.974;2022-11-04T00:58:28;101228.72;;;16.26;52.63
42169;BME280;27838;43.858;25.974;2022-11-04T01:00:54;101224.44;;;16.20;53.04
42169;BME280;27838;43.858;25.974;2022-11-04T01:03:21;101225.34;;;16.18;53.30
42169;BME280;27838;43.858;25.974;2022-11-04T01:05:47;101225.44;;;16.12;52.95
42169;BME280;27838;43.858;25.974;2022-11-04T01:08:14;101226.38;;;16.08;53.78
42169;BME280;27838;43.858;25.974;2022-11-04T01:10:41;101229.06;;;16.04;53.60
42169;BME280;27838;43.858;25.974;2022-11-04T01:13:11;101225.47;;;16.09;53.17
42169;BME280;27838;43.858;25.974;2022-11-04T01:15:38;101226.31;;;16.11;53.57
42169;BME280;27838;43.858;25.974;2022-11-04T01:18:05;101229.75;;;16.16;53.02
42169;BME280;27838;43.858;25.974;2022-11-04T01:20:32;101225.41;;;16.13;53.28
42169;BME280;27838;43.858;25.974;2022-11-04T01:22:59;101226.38;;;16.08;53.68
42169;BME280;27838;43.858;25.974;2022-11-04T01:25:25;101219.41;;;16.05;53.74
42169;BME280;27838;43.858;25.974;2022-11-04T01:27:52;101208.91;;;16.03;53.65
42169;BME280;27838;43.858;25.974;2022-11-04T01:30:19;101215.97;;;15.98;54.19
42169;BME280;27838;43.858;25.974;2022-11-04T01:32:45;101211.69;;;15.93;53.73
42169;BME280;27838;43.858;25.974;2022-11-04T01:35:12;101211.81;;;15.85;53.90
42169;BME280;27838;43.858;25.974;2022-11-04T01:37:38;101199.59;;;15.81;54.12
42169;BME280;27838;43.858;25.974;2022-11-04T01:40:05;101202.22;;;15.81;53.81
42169;BME280;27838;43.858;25.974;2022-11-04T01:42:32;101190.81;;;15.82;54.32
42169;BME280;27838;43.858;25.974;2022-11-04T01:44:59;101194.41;;;15.78;54.59
42169;BME280;27838;43.858;25.974;2022-11-04T01:47:29;101188.25;;;15.76;55.01
42169;BME280;27838;43.858;25.974;2022-11-04T01:52:42;101178.69;;;15.70;54.58
42169;BME280;27838;43.858;25.974;2022-11-04T01:55:18;101174.34;;;15.67;54.63
42169;BME280;27838;43.858;25.974;2022-11-04T01:57:48;101169.09;;;15.69;54.79
42169;BME280;27838;43.858;25.974;2022-11-04T02:00:16;101164.66;;;15.73;54.48
42169;BME280;27838;43.858;25.974;2022-11-04T02:05:33;101166.31;;;15.80;54.45
42169;BME280;27838;43.858;25.974;2022-11-04T02:08:01;101159.25;;;15.85;53.90
42169;BME280;27838;43.858;25.974;2022-11-04T02:10:30;101157.41;;;15.90;53.73
42169;BME280;27838;43.858;25.974;2022-11-04T02:12:59;101153.91;;;15.88;53.90
42169;BME280;27838;43.858;25.974;2022-11-04T02:18:05;101149.44;;;15.95;53.67
42169;BME280;27838;43.858;25.974;2022-11-04T02:35:00;101144.91;;;16.04;53.04
42169;BME280;27838;43.858;25.974;2022-11-04T02:37:35;101149.25;;;16.07;52.83
42169;BME280;27838;43.858;25.974;2022-11-04T02:42:50;101121.31;;;16.00;52.59
42169;BME280;27838;43.858;25.974;2022-11-04T02:48:11;101141.50;;;15.99;52.55
42169;BME280;27838;43.858;25.974;2022-11-04T02:54:07;101149.59;;;15.84;52.61
42169;BME280;27838;43.858;25.974;2022-11-04T02:56:43;101139.94;;;15.86;52.79
42169;BME280;27838;43.858;25.974;2022-11-04T02:59:18;101134.72;;;15.83;53.11
42169;BME280;27838;43.858;25.974;2022-11-04T03:01:48;101140.09;;;15.77;53.18
42169;BME280;27838;43.858;25.974;2022-11-04T03:04:21;101140.19;;;15.69;53.89
42169;BME280;27838;43.858;25.974;2022-11-04T03:06:49;101128.06;;;15.57;54.08
42169;BME280;27838;43.858;25.974;2022-11-04T03:09:19;101140.44;;;15.49;53.92
42169;BME280;27838;43.858;25.974;2022-11-04T03:11:51;101140.50;;;15.44;54.54
42169;BME280;27838;43.858;25.974;2022-11-04T03:14:23;101131.78;;;15.41;54.68
42169;BME280;27838;43.858;25.974;2022-11-04T03:16:55;101137.00;;;15.44;54.83
42169;BME280;27838;43.858;25.974;2022-11-04T03:19:29;101137.00;;;15.44;55.14
42169;BME280;27838;43.858;25.974;2022-11-04T03:22:03;101136.97;;;15.47;54.99
42169;BME280;27838;43.858;25.974;2022-11-04T03:24:30;101128.19;;;15.48;55.26
42169;BME280;27838;43.858;25.974;2022-11-04T03:27:05;101129.09;;;15.45;55.12
42169;BME280;27838;43.858;25.974;2022-11-04T03:29:40;101122.16;;;15.43;55.75
42169;BME280;27838;43.858;25.974;2022-11-04T03:34:51;101122.88;;;15.51;54.75
42169;BME280;27838;43.858;25.974;2022-11-04T03:37:17;101114.94;;;15.57;54.85
42169;BME280;27838;43.858;25.974;2022-11-04T03:39:44;101111.38;;;15.61;54.15
42169;BME280;27838;43.858;25.974;2022-11-04T03:42:12;101113.03;;;15.65;53.76
42169;BME280;27838;43.858;25.974;2022-11-04T03:44:50;101111.31;;;15.64;54.00
42169;BME280;27838;43.858;25.974;2022-11-04T03:47:20;101099.09;;;15.62;54.46
42169;BME280;27838;43.858;25.974;2022-11-04T03:49:50;101093.84;;;15.62;53.83
42169;BME280;27838;43.858;25.974;2022-11-04T03:52:18;101091.28;;;15.59;54.22
42169;BME280;27838;43.858;25.974;2022-11-04T03:54:46;101091.28;;;15.57;53.93
42169;BME280;27838;43.858;25.974;2022-11-04T04:08:39;101098.34;;;15.54;54.57
42169;BME280;27838;43.858;25.974;2022-11-04T04:16:09;101104.34;;;15.62;54.60
42169;BME280;27838;43.858;25.974;2022-11-04T04:18:51;101105.22;;;15.62;54.92
42169;BME280;27838;43.858;25.974;2022-11-04T04:21:20;101118.44;;;15.56;55.44
42169;BME280;27838;43.858;25.974;2022-11-04T04:23:50;101107.22;;;15.45;55.60
42169;BME280;27838;43.858;25.974;2022-11-04T04:26:47;101121.28;;;15.41;55.35
42169;BME280;27838;43.858;25.974;2022-11-04T04:29:34;101116.16;;;15.32;56.47
42169;BME280;27838;43.858;25.974;2022-11-04T04:32:02;101118.84;;;15.27;56.50
42169;BME280;27838;43.858;25.974;2022-11-04T04:34:31;101119.78;;;15.21;56.79
42169;BME280;27838;43.858;25.974;2022-11-04T04:37:05;101113.75;;;15.15;56.37
42169;BME280;27838;43.858;25.974;2022-11-04T04:39:39;101114.69;;;15.09;57.37
42169;BME280;27838;43.858;25.974;2022-11-04T04:42:24;101122.59;;;15.06;57.58
42169;BME280;27838;43.858;25.974;2022-11-04T04:45:17;101112.19;;;15.00;57.62
42169;BME280;27838;43.858;25.974;2022-11-04T04:47:45;101110.47;;;14.96;57.41
42169;BME280;27838;43.858;25.974;2022-11-04T04:50:14;101108.78;;;14.90;58.19
42169;BME280;27838;43.858;25.974;2022-11-04T04:52:45;101111.50;;;14.85;58.22
42169;BME280;27838;43.858;25.974;2022-11-04T04:55:13;101109.75;;;14.83;58.28
42169;BME280;27838;43.858;25.974;2022-11-04T04:57:40;101098.50;;;14.73;58.39
42169;BME280;27838;43.858;25.974;2022-11-04T05:00:08;101110.69;;;14.77;57.90
42169;BME280;27838;43.858;25.974;2022-11-04T05:02:35;101115.09;;;14.75;57.63
42169;BME280;27838;43.858;25.974;2022-11-04T05:05:01;101108.13;;;14.72;57.92
42169;BME280;27838;43.858;25.974;2022-11-04T05:07:28;101109.06;;;14.67;58.19
42169;BME280;27838;43.858;25.974;2022-11-04T05:09:55;101111.75;;;14.61;58.18
42169;BME280;27838;43.858;25.974;2022-11-04T05:12:21;101114.41;;;14.56;58.21
42169;BME280;27838;43.858;25.974;2022-11-04T05:14:48;101112.66;;;14.53;58.14
42169;BME280;27838;43.858;25.974;2022-11-04T05:17:15;101113.59;;;14.49;58.01
42169;BME280;27838;43.858;25.974;2022-11-04T05:19:41;101104.81;;;14.52;58.51
42169;BME280;27838;43.858;25.974;2022-11-04T05:22:08;101118.78;;;14.56;57.76
42169;BME280;27838;43.858;25.974;2022-11-04T05:24:34;101117.06;;;14.51;58.11
42169;BME280;27838;43.858;25.974;2022-11-04T05:27:01;101126.69;;;14.52;57.82
42169;BME280;27838;43.858;25.974;2022-11-04T05:29:27;101138.91;;;14.52;58.13
42169;BME280;27838;43.858;25.974;2022-11-04T05:31:54;101135.41;;;14.53;57.60
42169;BME280;27838;43.858;25.974;2022-11-04T05:34:22;101132.78;;;14.54;57.53
42169;BME280;27838;43.858;25.974;2022-11-04T05:36:48;101129.28;;;14.56;57.16
42169;BME280;27838;43.858;25.974;2022-11-04T05:39:15;101136.25;;;14.53;57.44
42169;BME280;27838;43.858;25.974;2022-11-04T05:41:41;101140.66;;;14.53;56.80
42169;BME280;27838;43.858;25.974;2022-11-04T05:44:09;101139.69;;;14.65;56.91
42169;BME280;27838;43.858;25.974;2022-11-04T05:46:36;101136.97;;;14.74;56.29
42169;BME280;27838;43.858;25.974;2022-11-04T05:49:02;101137.75;;;14.82;55.71
42169;BME280;27838;43.858;25.974;2022-11-04T05:51:30;101141.25;;;14.81;56.08
42169;BME280;27838;43.858;25.974;2022-11-04T05:53:57;101134.31;;;14.79;55.75
42169;BME280;27838;43.858;25.974;2022-11-04T05:56:23;101134.22;;;14.85;55.38
42169;BME280;27838;43.858;25.974;2022-11-04T05:58:50;101137.69;;;14.87;55.50
42169;BME280;27838;43.858;25.974;2022-11-04T06:01:39;101133.34;;;14.87;55.83
42169;BME280;27838;43.858;25.974;2022-11-04T06:04:13;101135.97;;;14.87;55.70
42169;BME280;27838;43.858;25.974;2022-11-04T06:06:40;101125.47;;;14.87;55.67
42169;BME280;27838;43.858;25.974;2022-11-04T06:09:06;101135.94;;;14.89;55.80
42169;BME280;27838;43.858;25.974;2022-11-04T06:11:34;101127.19;;;14.88;55.67
42169;BME280;27838;43.858;25.974;2022-11-04T06:14:00;101127.19;;;14.87;55.38
42169;BME280;27838;43.858;25.974;2022-11-04T06:16:27;101130.69;;;14.90;55.21
42169;BME280;27838;43.858;25.974;2022-11-04T06:18:53;101129.75;;;14.95;55.38
42169;BME280;27838;43.858;25.974;2022-11-04T06:21:29;101128.81;;;14.99;55.39
42169;BME280;27838;43.858;25.974;2022-11-04T06:23:57;101143.63;;;15.04;55.16
42169;BME280;27838;43.858;25.974;2022-11-04T06:26:26;101144.53;;;15.03;55.55
42169;BME280;27838;43.858;25.974;2022-11-04T06:28:53;101137.50;;;15.04;55.04
42169;BME280;27838;43.858;25.974;2022-11-04T06:31:19;101140.97;;;15.06;55.55
42169;BME280;27838;43.858;25.974;2022-11-04T06:33:46;101146.16;;;15.12;55.25
42169;BME280;27838;43.858;25.974;2022-11-04T06:36:13;101132.94;;;15.18;55.08
42169;BME280;27838;43.858;25.974;2022-11-04T06:38:41;101134.69;;;15.19;55.32
42169;BME280;27838;43.858;25.974;2022-11-04T06:41:11;101133.78;;;15.22;54.76
42169;BME280;27838;43.858;25.974;2022-11-04T06:43:38;101125.00;;;15.24;55.48
42169;BME280;27838;43.858;25.974;2022-11-04T06:46:06;101133.72;;;15.26;55.16
42169;BME280;27838;43.858;25.974;2022-11-04T06:48:32;101127.53;;;15.30;55.06
42169;BME280;27838;43.858;25.974;2022-11-04T06:50:59;101133.69;;;15.31;55.17
42169;BME280;27838;43.858;25.974;2022-11-04T06:53:26;101127.50;;;15.34;55.59
42169;BME280;27838;43.858;25.974;2022-11-04T06:55:53;101123.91;;;15.39;55.02
42169;BME280;27838;43.858;25.974;2022-11-04T06:58:27;101115.94;;;15.48;54.62
42169;BME280;27838;43.858;25.974;2022-11-04T07:00:53;101116.72;;;15.55;54.26
42169;BME280;27838;43.858;25.974;2022-11-04T07:03:20;101119.25;;;15.61;54.18
42169;BME280;27838;43.858;25.974;2022-11-04T07:05:46;101120.88;;;15.68;54.16
42169;BME280;27838;43.858;25.974;2022-11-04T07:08:13;101106.78;;;15.76;53.83
42169;BME280;27838;43.858;25.974;2022-11-04T07:10:40;101111.94;;;15.85;53.71
42169;BME280;27838;43.858;25.974;2022-11-04T07:13:07;101105.69;;;15.92;53.55
42169;BME280;27838;43.858;25.974;2022-11-04T07:15:33;101112.59;;;15.98;53.56
42169;BME280;27838;43.858;25.974;2022-11-04T07:18:00;101106.34;;;16.03;53.51
42169;BME280;27838;43.858;25.974;2022-11-04T07:20:26;101097.44;;;16.14;53.46
42169;BME280;27838;43.858;25.974;2022-11-04T07:22:53;101103.31;;;16.27;52.73
42169;BME280;27838;43.858;25.974;2022-11-04T07:25:20;101097.13;;;16.32;52.37
42169;BME280;27838;43.858;25.974;2022-11-04T07:27:46;101099.53;;;16.45;52.55
42169;BME280;27838;43.858;25.974;2022-11-04T07:30:13;101098.47;;;16.55;51.98
42169;BME280;27838;43.858;25.974;2022-11-04T07:32:40;101087.69;;;16.67;51.80
42169;BME280;27838;43.858;25.974;2022-11-04T07:35:06;101075.31;;;16.72;51.33
42169;BME280;27838;43.858;25.974;2022-11-04T07:37:33;101075.97;;;16.85;50.80
42169;BME280;27838;43.858;25.974;2022-11-04T07:40:00;101075.72;;;16.96;50.71
42169;BME280;27838;43.858;25.974;2022-11-04T07:42:26;101064.13;;;17.05;50.66
42169;BME280;27838;43.858;25.974;2022-11-04T07:44:53;101057.84;;;17.12;50.76
42169;BME280;27838;43.858;25.974;2022-11-04T07:47:20;101053.31;;;17.18;50.97
42169;BME280;27838;43.858;25.974;2022-11-04T07:49:46;101059.13;;;17.33;51.08
42169;BME280;27838;43.858;25.974;2022-11-04T07:52:13;101053.69;;;17.41;50.86
42169;BME280;27838;43.858;25.974;2022-11-04T07:54:39;101060.53;;;17.49;50.93
42169;BME280;27838;43.858;25.974;2022-11-04T07:57:06;101062.84;;;17.63;50.89
42169;BME280;27838;43.858;25.974;2022-11-04T07:59:32;101063.44;;;17.74;50.63
42169;BME280;27838;43.858;25.974;2022-11-04T08:01:59;101064.06;;;17.86;50.10
42169;BME280;27838;43.858;25.974;2022-11-04T08:04:25;101058.66;;;17.90;49.57
42169;BME280;27838;43.858;25.974;2022-11-04T08:06:52;101060.16;;;18.01;49.16
42169;BME280;27838;43.858;25.974;2022-11-04T08:09:19;101055.69;;;18.04;48.60
42169;BME280;27838;43.858;25.974;2022-11-04T08:11:46;101051.19;;;18.08;48.50
42169;BME280;27838;43.858;25.974;2022-11-04T08:14:12;101047.66;;;18.09;48.75
42169;BME280;27838;43.858;25.974;2022-11-04T08:16:39;101052.63;;;18.21;48.27
42169;BME280;27838;43.858;25.974;2022-11-04T08:19:05;101055.00;;;18.30;48.13
42169;BME280;27838;43.858;25.974;2022-11-04T08:21:32;101054.13;;;18.30;48.05
42169;BME280;27838;43.858;25.974;2022-11-04T08:23:59;101044.41;;;18.32;48.05
42169;BME280;27838;43.858;25.974;2022-11-04T08:26:28;101046.94;;;18.37;47.93
42169;BME280;27838;43.858;25.974;2022-11-04T08:28:55;101037.03;;;18.43;47.65
42169;BME280;27838;43.858;25.974;2022-11-04T08:31:23;101029.94;;;18.47;47.68
42169;BME280;27838;43.858;25.974;2022-11-04T08:33:52;101034.72;;;18.64;47.06
42169;BME280;27838;43.858;25.974;2022-11-04T08:36:21;101029.34;;;18.67;46.62
42169;BME280;27838;43.858;25.974;2022-11-04T08:38:49;101024.00;;;18.70;46.36
42169;BME280;27838;43.858;25.974;2022-11-04T08:41:19;101027.41;;;18.74;46.16
42169;BME280;27838;43.858;25.974;2022-11-04T08:43:46;101023.75;;;18.78;46.07
42169;BME280;27838;43.858;25.974;2022-11-04T08:46:14;101022.69;;;18.85;45.64
42169;BME280;27838;43.858;25.974;2022-11-04T08:48:41;101026.94;;;18.91;45.69
42169;BME280;27838;43.858;25.974;2022-11-04T08:51:17;101022.38;;;18.96;45.70
42169;BME280;27838;43.858;25.974;2022-11-04T08:53:44;101014.28;;;19.02;45.38
42169;BME280;27838;43.858;25.974;2022-11-04T08:56:13;101013.03;;;19.14;45.23
42169;BME280;27838;43.858;25.974;2022-11-04T08:58:40;101011.88;;;19.22;45.42
42169;BME280;27838;43.858;25.974;2022-11-04T09:01:08;101008.91;;;19.33;45.04
42169;BME280;27838;43.858;25.974;2022-11-04T09:03:39;101008.59;;;19.42;44.76
42169;BME280;27838;43.858;25.974;2022-11-04T09:06:08;100996.09;;;19.48;44.50
42169;BME280;27838;43.858;25.974;2022-11-04T09:08:36;100999.50;;;19.51;44.63
42169;BME280;27838;43.858;25.974;2022-11-04T09:11:07;100991.34;;;19.59;44.49
42169;BME280;27838;43.858;25.974;2022-11-04T09:13:35;100988.38;;;19.68;44.07
42169;BME280;27838;43.858;25.974;2022-11-04T09:16:01;100991.72;;;19.73;44.11
42169;BME280;27838;43.858;25.974;2022-11-04T09:18:29;100990.34;;;19.88;44.21
42169;BME280;27838;43.858;25.974;2022-11-04T09:21:00;100989.88;;;20.02;43.37
42169;BME280;27838;43.858;25.974;2022-11-04T09:23:27;100988.63;;;20.12;43.20
42169;BME280;27838;43.858;25.974;2022-11-04T09:25:53;100981.41;;;20.17;42.94
42169;BME280;27838;43.858;25.974;2022-11-04T09:28:21;100975.06;;;20.22;42.64
42169;BME280;27838;43.858;25.974;2022-11-04T09:30:49;100976.59;;;20.29;42.76
42169;BME280;27838;43.858;25.974;2022-11-04T09:33:16;100972.84;;;20.34;42.62
42169;BME280;27838;43.858;25.974;2022-11-04T09:35:43;100976.31;;;20.36;42.56
42169;BME280;27838;43.858;25.974;2022-11-04T09:38:19;100964.56;;;20.44;42.67
42169;BME280;27838;43.858;25.974;2022-11-04T09:40:45;100966.63;;;20.59;41.92
42169;BME280;27838;43.858;25.974;2022-11-04T09:43:44;100957.25;;;20.74;41.53
42169;BME280;27838;43.858;25.974;2022-11-04T09:46:14;100955.19;;;20.82;41.40
42169;BME280;27838;43.858;25.974;2022-11-04T09:48:52;100955.81;;;20.89;41.45
42169;BME280;27838;43.858;25.974;2022-11-04T09:51:21;100946.63;;;20.98;41.96
42169;BME280;27838;43.858;25.974;2022-11-04T09:54:00;100935.59;;;21.08;41.47
42169;BME280;27838;43.858;25.974;2022-11-04T09:56:34;100936.63;;;21.26;41.23
42169;BME280;27838;43.858;25.974;2022-11-04T09:59:04;100936.00;;;21.42;40.89
42169;BME280;27838;43.858;25.974;2022-11-04T10:01:45;100933.53;;;21.59;40.82
42169;BME280;27838;43.858;25.974;2022-11-04T10:13:33;100911.28;;;22.03;39.93
42169;BME280;27838;43.858;25.974;2022-11-04T10:18:33;100889.53;;;22.34;39.01
42169;BME280;27838;43.858;25.974;2022-11-04T10:24:17;100874.47;;;22.54;38.72
42169;BME280;27838;43.858;25.974;2022-11-04T10:32:27;100862.97;;;22.72;37.84
42169;BME280;27838;43.858;25.974;2022-11-04T10:35:09;100858.63;;;22.70;37.98
42169;BME280;27838;43.858;25.974;2022-11-04T10:37:40;100855.69;;;22.76;37.81
42169;BME280;27838;43.858;25.974;2022-11-04T10:40:22;100858.78;;;22.86;37.70
42169;BME280;27838;43.858;25.974;2022-11-04T10:42:50;100856.44;;;22.97;37.24
42169;BME280;27838;43.858;25.974;2022-11-04T10:45:20;100847.81;;;23.11;37.20
42169;BME280;27838;43.858;25.974;2022-11-04T10:47:59;100842.09;;;23.18;36.88
42169;BME280;27838;43.858;25.974;2022-11-04T10:50:39;100835.34;;;23.29;36.75
42169;BME280;27838;43.858;25.974;2022-11-04T10:53:21;100826.31;;;23.33;36.89
42169;BME280;27838;43.858;25.974;2022-11-04T10:56:11;100824.84;;;23.43;36.60
42169;BME280;27838;43.858;25.974;2022-11-04T10:58:45;100819.81;;;23.38;36.33
42169;BME280;27838;43.858;25.974;2022-11-04T11:01:32;100826.47;;;23.30;36.57
42169;BME280;27838;43.858;25.974;2022-11-04T11:04:00;100819.56;;;23.26;36.30
42169;BME280;27838;43.858;25.974;2022-11-04T11:06:30;100817.00;;;23.24;36.04
42169;BME280;27838;43.858;25.974;2022-11-04T11:09:18;100818.84;;;23.22;36.52
42169;BME280;27838;43.858;25.974;2022-11-04T11:11:48;100810.25;;;23.17;36.41
42169;BME280;27838;43.858;25.974;2022-11-04T11:14:17;100818.50;;;23.12;36.53
42169;BME280;27838;43.858;25.974;2022-11-04T11:16:45;100810.16;;;23.01;36.75
42169;BME280;27838;43.858;25.974;2022-11-04T11:19:16;100803.91;;;23.02;36.87
42169;BME280;27838;43.858;25.974;2022-11-04T11:21:50;100791.47;;;23.03;36.99
42169;BME280;27838;43.858;25.974;2022-11-04T11:26:51;100788.34;;;22.94;36.90
42169;BME280;27838;43.858;25.974;2022-11-04T11:29:27;100786.06;;;22.87;37.17
42169;BME280;27838;43.858;25.974;2022-11-04T11:31:56;100778.44;;;22.80;37.23
42169;BME280;27838;43.858;25.974;2022-11-04T11:34:29;100780.75;;;22.69;37.49
42169;BME280;27838;43.858;25.974;2022-11-04T11:36:58;100775.44;;;22.69;37.84
42169;BME280;27838;43.858;25.974;2022-11-04T11:39:36;100764.72;;;22.71;37.78
42169;BME280;27838;43.858;25.974;2022-11-04T11:42:13;100764.81;;;22.87;37.47
42169;BME280;27838;43.858;25.974;2022-11-04T11:44:52;100766.28;;;22.92;37.41
42169;BME280;27838;43.858;25.974;2022-11-04T11:52:32;100753.28;;;23.05;37.25
42169;BME280;27838;43.858;25.974;2022-11-04T11:55:31;100753.09;;;23.08;37.04
42169;BME280;27838;43.858;25.974;2022-11-04T12:00:47;100752.25;;;23.08;36.88
42169;BME280;27838;43.858;25.974;2022-11-04T12:03:24;100747.78;;;23.08;37.01
42169;BME280;27838;43.858;25.974;2022-11-04T12:08:56;100738.63;;;22.96;37.21
42169;BME280;27838;43.858;25.974;2022-11-04T12:11:43;100727.47;;;22.90;37.53
42169;BME280;27838;43.858;25.974;2022-11-04T12:14:24;100728.78;;;22.81;37.56
42169;BME280;27838;43.858;25.974;2022-11-04T12:17:02;100724.72;;;22.74;37.77
42169;BME280;27838;43.858;25.974;2022-11-04T12:22:28;100726.75;;;22.51;37.92
42169;BME280;27838;43.858;25.974;2022-11-04T12:25:27;100720.88;;;22.44;38.34
42169;BME280;27838;43.858;25.974;2022-11-04T12:31:25;100707.44;;;22.30;38.48
42169;BME280;27838;43.858;25.974;2022-11-04T12:34:31;100711.88;;;22.30;38.62
42169;BME280;27838;43.858;25.974;2022-11-04T12:37:12;100706.41;;;22.33;38.71
42169;BME280;27838;43.858;25.974;2022-11-04T12:44:49;100696.19;;;22.42;38.61
42169;BME280;27838;43.858;25.974;2022-11-04T12:47:34;100697.91;;;22.43;38.52
42169;BME280;27838;43.858;25.974;2022-11-04T12:54:13;100698.22;;;22.37;38.71
42169;BME280;27838;43.858;25.974;2022-11-04T12:56:11;100698.50;;;22.31;38.70
42169;BME280;27838;43.858;25.974;2022-11-04T13:01:37;100684.56;;;22.26;38.79
42169;BME280;27838;43.858;25.974;2022-11-04T13:04:21;100687.19;;;22.28;39.13
42169;BME280;27838;43.858;25.974;2022-11-04T13:06:54;100681.72;;;22.31;39.03
42169;BME280;27838;43.858;25.974;2022-11-04T13:12:14;100679.84;;;22.33;38.58
42169;BME280;27838;43.858;25.974;2022-11-04T13:17:12;100671.53;;;22.40;38.48
42169;BME280;27838;43.858;25.974;2022-11-04T13:19:45;100662.44;;;22.44;38.33
42169;BME280;27838;43.858;25.974;2022-11-04T13:22:28;100657.00;;;22.48;38.25
42169;BME280;27838;43.858;25.974;2022-11-04T13:25:03;100648.69;;;22.54;38.08
42169;BME280;27838;43.858;25.974;2022-11-04T13:27:36;100647.06;;;22.51;37.80
42169;BME280;27838;43.858;25.974;2022-11-04T13:30:06;100633.00;;;22.49;37.67
42169;BME280;27838;43.858;25.974;2022-11-04T13:33:10;100635.81;;;22.46;37.68
42169;BME280;27838;43.858;25.974;2022-11-04T13:38:54;100640.72;;;22.36;37.83
42169;BME280;27838;43.858;25.974;2022-11-04T13:44:00;100645.41;;;22.31;37.96
42169;BME280;27838;43.858;25.974;2022-11-04T13:46:31;100639.53;;;22.24;38.31
42169;BME280;27838;43.858;25.974;2022-11-04T13:51:43;100639.69;;;22.21;38.08
42169;BME280;27838;43.858;25.974;2022-11-04T13:57:11;100648.81;;;22.16;38.57
42169;BME280;27838;43.858;25.974;2022-11-04T13:59:39;100652.47;;;22.13;38.59
42169;BME280;27838;43.858;25.974;2022-11-04T14:02:22;100648.00;;;22.14;38.70
42169;BME280;27838;43.858;25.974;2022-11-04T14:04:49;100653.44;;;22.12;38.85
42169;BME280;27838;43.858;25.974;2022-11-04T14:07:16;100640.22;;;22.11;38.78
42169;BME280;27838;43.858;25.974;2022-11-04T14:22:46;100628.63;;;21.94;39.44
42169;BME280;27838;43.858;25.974;2022-11-04T14:25:34;100633.16;;;21.92;39.25
42169;BME280;27838;43.858;25.974;2022-11-04T14:28:17;100622.63;;;21.91;39.36
42169;BME280;27838;43.858;25.974;2022-11-04T14:30:58;100626.44;;;21.85;39.72
42169;BME280;27838;43.858;25.974;2022-11-04T14:35:54;100624.69;;;21.84;40.15
42169;BME280;27838;43.858;25.974;2022-11-04T14:38:28;100624.88;;;21.81;40.01
42169;BME280;27838;43.858;25.974;2022-11-04T14:43:47;100614.63;;;21.73;40.32
42169;BME280;27838;43.858;25.974;2022-11-04T14:46:20;100607.09;;;21.64;40.58
42169;BME280;27838;43.858;25.974;2022-11-04T14:48:50;100606.16;;;21.65;40.21
42169;BME280;27838;43.858;25.974;2022-11-04T14:51:30;100611.69;;;21.60;40.55
42169;BME280;27838;43.858;25.974;2022-11-04T14:54:05;100609.25;;;21.56;40.69
42169;BME280;27838;43.858;25.974;2022-11-04T14:56:33;100606.84;;;21.51;41.00
42169;BME280;27838;43.858;25.974;2022-11-04T14:59:04;100602.53;;;21.48;41.05
42169;BME280;27838;43.858;25.974;2022-11-04T15:01:32;100600.06;;;21.44;41.05
42169;BME280;27838;43.858;25.974;2022-11-04T15:04:16;100597.78;;;21.36;41.30
42169;BME280;27838;43.858;25.974;2022-11-04T15:06:58;100604.94;;;21.34;41.43
42169;BME280;27838;43.858;25.974;2022-11-04T15:09:33;100593.75;;;21.27;41.56
42169;BME280;27838;43.858;25.974;2022-11-04T15:12:11;100601.91;;;21.23;41.82
42169;BME280;27838;43.858;25.974;2022-11-04T15:14:56;100604.88;;;21.17;42.01
42169;BME280;27838;43.858;25.974;2022-11-04T15:17:27;100601.50;;;21.13;42.07
42169;BME280;27838;43.858;25.974;2022-11-04T15:19:56;100597.19;;;21.10;42.06